Opdyke, IL (62872)

06:56 AM CDT del 20 Settembre 2014 (GMT -0500)
Bluford | Change Station
CLOSE
Current Station
Stazione meteo personale
Location: Bluford, IL
Altitudine: 515 ft
Stazioni meteo nelle vicinanze
Avvisi attivi: Special Statement

Alt. 515 ft 38.32 °N, 88.74 °W | Updated 12 minutes ago

Sereno
Sereno
57.0 °F
Sembra 57.0 °F
N
0.0
Vento Variabile Vento da SE
Gusts 1.0 mph

Oggi
Massima -- | Minima -- °F
--% Possibilità di precip.
Ieri
Massima -- | Minima -- °F
Precip. -- in
6:41 AM 6:55 PM
Luna calante, 13% visible
Pressione 30.05 in
Visibilità 4.0 miglia
Nuvole Alcuni 3600 ft
Punto di rugiada 55 °F
Umidità 94%
Piovosità 0.00 in
Spessore del manto nevoso Non disponibile.
Raggi UV 0 fuori da 12
Polline 6.50 fuori da 12
Qualità dell'aria Non disponibile.
Flu Activity Non disponibile.
METAR KMVN 201135Z AUTO 00000KT 4SM FEW036 12/09 A3005 RMK AO1

More Conditions Fewer Conditions

Pressione 30.05 in
Visibilità 4.0 miglia
Nuvole Alcuni 3600 ft
Punto di rugiada 55 °F
Umidità 94%
Piovosità 0.00 in
Spessore del manto nevoso Non disponibile.
Raggi UV 0 fuori da 12
Polline 6.50 fuori da 12
Qualità dell'aria Non disponibile.
Flu Activity Non disponibile.
METAR KMVN 201135Z AUTO 00000KT 4SM FEW036 12/09 A3005 RMK AO1

More Conditions Fewer Conditions

10-Day Weather Forecast

Almanac

Astronomia

Sep. 20, 2014 Alba Tramonto
Ora attuale 06:41 CDT 18:55 CDT
Crepuscolo civile 06:14 CDT 19:21 CDT
Crepuscolo nautico 05:43 CDT 19:52 CDT
Crepuscolo astronomico 05:12 CDT 20:23 CDT
Luna 03:22 CDT 16:56 CDT
Estensione della luce visibile 13h 06m
Lunghezza del giorno
12h 14m
Tomorrow will be 2m 27s shorter.
Luna calante, 13% of the Moon is Illuminated
Oggi
Luna calante
Set 24
Nuovo
Ott 1
Primo quarto
Ott 8
Luna piena
Ott 15
Ultimo quarto

Gli estremi di oggi

State Highs State Lows

Community

WunderPhotos

Upload Photos

1,754,835 foto caricate!

Nearby

Profondità neve

Stazione Profondità Altitudine
Non sono state evidenziate nuove nevicate

Attività sismica

Città  Distanza Mag. Data & Ora
Non sono state riportate attività sismiche nelle vicinanze.
Minimo Magnitudo Mostrato è 2.5.

Temperature delle acque costiere

Località Temperatura
Nessun dato dalle stazioni

Stazioni meteo nelle vicinanze